createdAt,value
2022-11-29T00:00:47.362Z,7.42
2022-11-29T00:01:47.379Z,7.43
2022-11-29T00:02:47.396Z,7.45
2022-11-29T00:03:47.339Z,7.45
2022-11-29T00:04:47.302Z,7.45
2022-11-29T00:05:47.313Z,7.43
2022-11-29T00:06:47.305Z,7.45
2022-11-29T00:07:47.337Z,7.47
2022-11-29T00:08:47.253Z,7.43
2022-11-29T00:09:47.250Z,7.47
2022-11-29T00:10:47.377Z,7.45
2022-11-29T00:11:47.230Z,7.45
2022-11-29T00:12:47.211Z,7.45
2022-11-29T00:13:47.222Z,7.47
2022-11-29T00:14:47.408Z,7.45
2022-11-29T00:15:47.182Z,7.47
2022-11-29T00:16:47.388Z,7.45
2022-11-29T00:17:47.161Z,7.45
2022-11-29T00:18:47.130Z,7.45
2022-11-29T00:19:47.143Z,7.42
2022-11-29T00:20:47.126Z,7.45
2022-11-29T00:21:47.119Z,7.45
2022-11-29T00:22:47.103Z,7.45
2022-11-29T00:23:47.102Z,7.43
2022-11-29T00:24:47.078Z,7.45
2022-11-29T00:25:47.073Z,7.43
2022-11-29T00:26:47.082Z,7.42
2022-11-29T00:27:47.051Z,7.40
2022-11-29T00:28:47.039Z,7.42
2022-11-29T00:29:47.019Z,7.42
2022-11-29T00:30:47.054Z,7.43
2022-11-29T00:31:47.011Z,7.43
2022-11-29T00:32:46.987Z,7.42
2022-11-29T00:33:47.020Z,7.42
2022-11-29T00:34:46.983Z,7.43
2022-11-29T00:35:46.971Z,7.40
2022-11-29T00:36:46.952Z,7.42
2022-11-29T00:37:46.972Z,7.42
2022-11-29T00:38:46.931Z,7.40
2022-11-29T00:39:46.924Z,7.40
2022-11-29T00:40:46.899Z,7.42
2022-11-29T00:41:46.912Z,7.42
2022-11-29T00:42:46.882Z,7.40
2022-11-29T00:43:46.885Z,7.42
2022-11-29T00:44:46.859Z,7.43
2022-11-29T00:45:46.896Z,7.45
2022-11-29T00:46:46.847Z,7.40
2022-11-29T00:47:46.851Z,7.40
2022-11-29T00:48:46.802Z,7.42
2022-11-29T00:49:46.860Z,7.42
2022-11-29T00:50:46.799Z,7.40
2022-11-29T00:51:46.783Z,7.40
2022-11-29T00:52:46.783Z,7.40
2022-11-29T00:53:46.751Z,7.39
2022-11-29T00:54:46.966Z,7.39
2022-11-29T00:55:46.752Z,7.39
2022-11-29T00:56:46.729Z,7.40
2022-11-29T00:57:46.750Z,7.40
2022-11-29T00:58:46.712Z,7.40
2022-11-29T00:59:46.704Z,7.40
2022-11-29T01:00:46.704Z,7.40
2022-11-29T01:01:46.757Z,7.40
2022-11-29T01:02:46.759Z,7.40
2022-11-29T01:03:46.650Z,7.40
2022-11-29T01:04:46.946Z,7.40
2022-11-29T01:05:46.620Z,7.40
2022-11-29T01:06:46.612Z,7.40
2022-11-29T01:07:46.632Z,7.40
2022-11-29T01:08:46.600Z,7.39
2022-11-29T01:09:46.592Z,7.40
2022-11-29T01:10:46.565Z,7.39
2022-11-29T01:11:46.592Z,7.39
2022-11-29T01:12:46.540Z,7.39
2022-11-29T01:13:46.543Z,7.40
2022-11-29T01:14:46.793Z,7.40
2022-11-29T01:15:46.525Z,7.39
2022-11-29T01:16:46.572Z,7.39
2022-11-29T01:17:46.492Z,7.39
2022-11-29T01:18:46.484Z,7.39
2022-11-29T01:19:50.654Z,7.39
2022-11-29T01:20:46.457Z,7.39
2022-11-29T01:21:46.459Z,7.40
2022-11-29T01:22:46.471Z,7.39
2022-11-29T01:23:46.432Z,7.38
2022-11-29T01:24:46.610Z,7.40
2022-11-29T01:25:46.408Z,7.39
2022-11-29T01:26:46.408Z,7.40
2022-11-29T01:27:46.381Z,7.40
2022-11-29T01:28:46.391Z,7.40
2022-11-29T01:29:46.361Z,7.39
2022-11-29T01:30:46.427Z,7.39
2022-11-29T01:31:46.345Z,7.42
2022-11-29T01:32:46.312Z,7.40
2022-11-29T01:33:46.320Z,7.40
2022-11-29T01:34:46.634Z,7.40
2022-11-29T01:35:46.293Z,7.42
2022-11-29T01:36:46.272Z,7.42
2022-11-29T01:37:46.272Z,7.42
2022-11-29T01:38:46.260Z,7.42
2022-11-29T01:39:46.268Z,7.42
2022-11-29T01:40:46.231Z,7.42
2022-11-29T01:41:46.233Z,7.42
2022-11-29T01:42:46.220Z,7.40
2022-11-29T01:43:46.304Z,7.42
2022-11-29T01:44:46.551Z,7.42
2022-11-29T01:45:46.298Z,7.42
2022-11-29T01:46:46.160Z,7.43
2022-11-29T01:47:46.163Z,7.42
2022-11-29T01:48:46.141Z,7.45
2022-11-29T01:49:46.181Z,7.42
2022-11-29T01:50:46.153Z,7.43
2022-11-29T01:51:46.133Z,7.42
2022-11-29T01:52:46.112Z,7.43
2022-11-29T01:53:46.094Z,7.42
2022-11-29T01:54:46.383Z,7.43
2022-11-29T01:55:46.186Z,7.42
2022-11-29T01:56:46.062Z,7.42
2022-11-29T01:57:46.041Z,7.43
2022-11-29T01:58:46.040Z,7.43
2022-11-29T01:59:46.041Z,7.43
2022-11-29T02:00:46.015Z,7.43
2022-11-29T02:01:46.069Z,7.42
2022-11-29T02:02:46.023Z,7.42
2022-11-29T02:03:45.973Z,7.42
2022-11-29T02:04:46.218Z,7.43
2022-11-29T02:05:45.956Z,7.42
2022-11-29T02:06:45.948Z,7.40
2022-11-29T02:07:46.030Z,7.42
2022-11-29T02:08:45.952Z,7.42
2022-11-29T02:09:45.906Z,7.40
2022-11-29T02:10:45.913Z,7.39
2022-11-29T02:11:45.893Z,7.39
2022-11-29T02:12:45.904Z,7.40
2022-11-29T02:13:45.881Z,7.40
2022-11-29T02:14:46.143Z,7.39
2022-11-29T02:15:45.932Z,7.38
2022-11-29T02:16:45.842Z,7.40
2022-11-29T02:17:45.821Z,7.38
2022-11-29T02:18:45.825Z,7.36
2022-11-29T02:19:45.834Z,7.36
2022-11-29T02:20:45.793Z,7.36
2022-11-29T02:21:45.782Z,7.36
2022-11-29T02:22:45.782Z,7.36
2022-11-29T02:23:45.742Z,7.36
2022-11-29T02:24:46.105Z,7.35
2022-11-29T02:25:45.748Z,7.35
2022-11-29T02:26:45.725Z,7.35
2022-11-29T02:27:45.713Z,7.35
2022-11-29T02:28:45.713Z,7.33
2022-11-29T02:29:45.694Z,7.33
2022-11-29T02:30:45.740Z,7.33
2022-11-29T02:31:45.682Z,7.32
2022-11-29T02:32:45.685Z,7.32
2022-11-29T02:33:45.666Z,7.33
2022-11-29T02:34:45.951Z,7.33
2022-11-29T02:35:45.625Z,7.33
2022-11-29T02:36:45.625Z,7.32
2022-11-29T02:37:45.593Z,7.32
2022-11-29T02:38:45.594Z,7.32
2022-11-29T02:39:45.570Z,7.33
2022-11-29T02:40:45.592Z,7.33
2022-11-29T02:41:45.562Z,7.35
2022-11-29T02:42:46.416Z,7.35
2022-11-29T02:43:45.534Z,7.35
2022-11-29T02:44:45.837Z,7.33
2022-11-29T02:45:45.553Z,7.33
2022-11-29T02:46:45.515Z,7.35
2022-11-29T02:47:45.493Z,7.35
2022-11-29T02:48:45.481Z,7.35
2022-11-29T02:49:45.461Z,7.35
2022-11-29T02:50:45.457Z,7.36
2022-11-29T02:51:45.434Z,7.35
2022-11-29T02:52:45.441Z,7.35
2022-11-29T02:53:45.436Z,7.36
2022-11-29T02:54:45.728Z,7.35
2022-11-29T02:55:45.395Z,7.36
2022-11-29T02:56:45.393Z,7.36
2022-11-29T02:57:45.374Z,7.35
2022-11-29T02:58:45.373Z,7.35
2022-11-29T02:59:45.443Z,7.33
2022-11-29T03:00:45.359Z,7.33
2022-11-29T03:01:45.353Z,7.33
2022-11-29T03:02:45.340Z,7.33
2022-11-29T03:03:45.306Z,7.35
2022-11-29T03:04:45.608Z,7.33
2022-11-29T03:05:45.313Z,7.35
2022-11-29T03:06:45.285Z,7.35
2022-11-29T03:07:45.358Z,7.35
2022-11-29T03:08:45.278Z,7.35
2022-11-29T03:09:45.394Z,7.36
2022-11-29T03:10:45.242Z,7.38
2022-11-29T03:11:45.214Z,7.38
2022-11-29T03:12:45.234Z,7.38
2022-11-29T03:13:45.215Z,7.39
2022-11-29T03:14:45.621Z,7.39
2022-11-29T03:15:45.232Z,7.39
2022-11-29T03:16:45.195Z,7.40
2022-11-29T03:17:45.154Z,7.40
2022-11-29T03:18:45.150Z,7.40
2022-11-29T03:19:45.134Z,7.42
2022-11-29T03:20:45.117Z,7.43
2022-11-29T03:21:45.106Z,7.42
2022-11-29T03:22:45.137Z,7.43
2022-11-29T03:23:45.075Z,7.45
2022-11-29T03:24:45.435Z,7.45
2022-11-29T03:25:45.063Z,7.43
2022-11-29T03:26:45.069Z,7.43
2022-11-29T03:27:45.055Z,7.42
2022-11-29T03:28:45.318Z,7.43
2022-11-29T03:29:45.022Z,7.42
2022-11-29T03:30:45.028Z,7.42
2022-11-29T03:31:45.003Z,7.42
2022-11-29T03:32:44.983Z,7.40
2022-11-29T03:33:44.995Z,7.42
2022-11-29T03:34:45.265Z,7.39
2022-11-29T03:35:44.955Z,7.39
2022-11-29T03:36:44.956Z,7.39
2022-11-29T03:37:44.947Z,7.39
2022-11-29T03:38:44.945Z,7.38
2022-11-29T03:39:44.929Z,7.38
2022-11-29T03:40:44.915Z,7.38
2022-11-29T03:41:44.886Z,7.38
2022-11-29T03:42:44.882Z,7.36
2022-11-29T03:43:44.879Z,7.36
2022-11-29T03:44:45.150Z,7.33
2022-11-29T03:45:44.835Z,7.33
2022-11-29T03:46:44.823Z,7.32
2022-11-29T03:47:44.828Z,7.31
2022-11-29T03:48:44.862Z,7.29
2022-11-29T03:49:44.820Z,7.29
2022-11-29T03:50:44.795Z,7.31
2022-11-29T03:51:44.797Z,7.31
2022-11-29T03:52:44.795Z,7.29
2022-11-29T03:53:44.752Z,7.29
2022-11-29T03:54:44.964Z,7.29
2022-11-29T03:55:44.736Z,7.29
2022-11-29T03:56:44.732Z,7.29
2022-11-29T03:57:44.703Z,7.31
2022-11-29T03:58:44.699Z,7.29
2022-11-29T03:59:44.687Z,7.28
2022-11-29T04:00:44.696Z,7.29
2022-11-29T04:01:44.714Z,7.29
2022-11-29T04:02:44.692Z,7.31
2022-11-29T04:03:44.622Z,7.31
2022-11-29T04:04:45.031Z,7.31
2022-11-29T04:05:44.630Z,7.31
2022-11-29T04:06:44.613Z,7.31
2022-11-29T04:07:44.803Z,7.31
2022-11-29T04:08:44.595Z,7.33
2022-11-29T04:09:44.574Z,7.31
2022-11-29T04:10:44.608Z,7.33
2022-11-29T04:11:44.548Z,7.35
2022-11-29T04:12:44.551Z,7.35
2022-11-29T04:13:44.524Z,7.35
2022-11-29T04:14:44.896Z,7.33
2022-11-29T04:15:44.518Z,7.33
2022-11-29T04:16:44.508Z,7.33
2022-11-29T04:17:44.483Z,7.33
2022-11-29T04:18:44.497Z,7.33
2022-11-29T04:19:44.464Z,7.33
2022-11-29T04:20:47.992Z,7.32
2022-11-29T04:21:44.437Z,7.32
2022-11-29T04:22:44.476Z,7.33
2022-11-29T04:23:44.404Z,7.32
2022-11-29T04:24:44.669Z,7.32
2022-11-29T04:25:44.398Z,7.32
2022-11-29T04:26:44.417Z,7.31
2022-11-29T04:27:44.364Z,7.31
2022-11-29T04:28:44.376Z,7.31
2022-11-29T04:29:44.337Z,7.33
2022-11-29T04:30:44.353Z,7.32
2022-11-29T04:31:44.356Z,7.33
2022-11-29T04:32:44.326Z,7.33
2022-11-29T04:33:44.304Z,7.33
2022-11-29T04:34:44.553Z,7.33
2022-11-29T04:35:44.276Z,7.33
2022-11-29T04:36:44.288Z,7.35
2022-11-29T04:37:44.303Z,7.33
2022-11-29T04:38:44.256Z,7.35
2022-11-29T04:39:44.237Z,7.36
2022-11-29T04:40:44.224Z,7.35
2022-11-29T04:41:44.217Z,7.36
2022-11-29T04:42:44.208Z,7.38
2022-11-29T04:43:44.210Z,7.38
2022-11-29T04:44:44.530Z,7.38
2022-11-29T04:45:44.183Z,7.38
2022-11-29T04:46:44.201Z,7.39
2022-11-29T04:47:44.167Z,7.38
2022-11-29T04:48:44.147Z,7.39
2022-11-29T04:49:44.130Z,7.39
2022-11-29T04:50:44.116Z,7.39
2022-11-29T04:51:44.105Z,7.40
2022-11-29T04:52:44.098Z,7.40
2022-11-29T04:53:44.113Z,7.40
2022-11-29T04:54:44.364Z,7.42
2022-11-29T04:55:44.064Z,7.40
2022-11-29T04:56:44.052Z,7.40
2022-11-29T04:57:44.037Z,7.40
2022-11-29T04:58:44.066Z,7.42
2022-11-29T04:59:44.017Z,7.40
2022-11-29T05:00:44.016Z,7.42
2022-11-29T05:01:44.011Z,7.42
2022-11-29T05:02:44.066Z,7.42
2022-11-29T05:03:46.660Z,7.42
2022-11-29T05:04:44.218Z,7.40
2022-11-29T05:05:43.949Z,7.43
2022-11-29T05:06:43.948Z,7.42
2022-11-29T05:07:43.980Z,7.42
2022-11-29T05:08:43.925Z,7.42
2022-11-29T05:09:43.914Z,7.42
2022-11-29T05:10:43.927Z,7.40
2022-11-29T05:11:43.887Z,7.39
2022-11-29T05:12:43.875Z,7.39
2022-11-29T05:13:43.878Z,7.39
2022-11-29T05:14:44.172Z,7.39
2022-11-29T05:15:43.850Z,7.39
2022-11-29T05:16:43.834Z,7.39
2022-11-29T05:17:43.819Z,7.39
2022-11-29T05:18:43.808Z,7.39
2022-11-29T05:19:43.815Z,7.39
2022-11-29T05:20:43.776Z,7.40
2022-11-29T05:21:43.766Z,7.39
2022-11-29T05:22:43.765Z,7.36
2022-11-29T05:23:43.736Z,7.39
2022-11-29T05:24:44.099Z,7.36
2022-11-29T05:25:43.728Z,7.38
2022-11-29T05:26:43.728Z,7.38
2022-11-29T05:27:43.704Z,7.39
2022-11-29T05:28:43.696Z,7.38
2022-11-29T05:29:43.677Z,7.38
2022-11-29T05:30:43.685Z,7.38
2022-11-29T05:31:43.644Z,7.38
2022-11-29T05:32:43.666Z,7.39
2022-11-29T05:33:43.632Z,7.39
2022-11-29T05:34:43.636Z,7.39
2022-11-29T05:35:43.618Z,7.40
2022-11-29T05:36:43.648Z,7.40
2022-11-29T05:37:43.590Z,7.40
2022-11-29T05:38:43.580Z,7.40
2022-11-29T05:39:43.573Z,7.40
2022-11-29T05:40:43.576Z,7.42
2022-11-29T05:41:43.547Z,7.42
2022-11-29T05:42:43.568Z,7.42
2022-11-29T05:43:43.512Z,7.43
2022-11-29T05:44:43.787Z,7.42
2022-11-29T05:45:43.506Z,7.43
2022-11-29T05:46:43.556Z,7.43
2022-11-29T05:47:43.477Z,7.42
2022-11-29T05:48:43.522Z,7.43
2022-11-29T05:49:43.445Z,7.45
2022-11-29T05:50:43.445Z,7.45
2022-11-29T05:51:43.469Z,7.45
2022-11-29T05:52:43.428Z,7.45
2022-11-29T05:53:43.407Z,7.47
2022-11-29T05:54:43.754Z,7.48
2022-11-29T05:55:43.441Z,7.48
2022-11-29T05:56:43.526Z,7.48
2022-11-29T05:57:43.559Z,7.50
2022-11-29T05:58:43.360Z,7.50
2022-11-29T05:59:43.367Z,7.48
2022-11-29T06:00:43.340Z,7.48
2022-11-29T06:01:43.474Z,7.48
2022-11-29T06:02:43.361Z,7.50
2022-11-29T06:03:43.323Z,7.50
2022-11-29T06:04:43.720Z,7.50
2022-11-29T06:05:43.268Z,7.50
2022-11-29T06:06:43.268Z,7.51
2022-11-29T06:07:43.301Z,7.50
2022-11-29T06:08:43.248Z,7.51
2022-11-29T06:09:43.236Z,7.51
2022-11-29T06:10:43.217Z,7.51
2022-11-29T06:11:43.229Z,7.53
2022-11-29T06:12:43.204Z,7.51
2022-11-29T06:13:43.216Z,7.51
2022-11-29T06:14:43.492Z,7.51
2022-11-29T06:15:43.189Z,7.51
2022-11-29T06:16:43.161Z,7.53
2022-11-29T06:17:43.477Z,7.50
2022-11-29T06:18:43.136Z,7.51
2022-11-29T06:19:43.158Z,7.48
2022-11-29T06:20:43.143Z,7.48
2022-11-29T06:21:43.108Z,7.48
2022-11-29T06:22:43.088Z,7.48
2022-11-29T06:23:43.112Z,7.48
2022-11-29T06:24:43.324Z,7.50
2022-11-29T06:25:43.068Z,7.48
2022-11-29T06:26:43.067Z,7.48
2022-11-29T06:27:43.036Z,7.48
2022-11-29T06:28:43.023Z,7.50
2022-11-29T06:29:43.020Z,7.50
2022-11-29T06:30:43.011Z,7.48
2022-11-29T06:31:43.112Z,7.48
2022-11-29T06:32:42.991Z,7.48
2022-11-29T06:33:42.990Z,7.50
2022-11-29T06:34:43.160Z,7.50
2022-11-29T06:35:42.937Z,7.48
2022-11-29T06:36:42.927Z,7.48
2022-11-29T06:37:42.936Z,7.50
2022-11-29T06:38:42.908Z,7.50
2022-11-29T06:39:43.020Z,7.48
2022-11-29T06:40:42.899Z,7.48
2022-11-29T06:41:42.884Z,7.48
2022-11-29T06:42:42.856Z,7.48
2022-11-29T06:43:42.848Z,7.50
2022-11-29T06:44:43.322Z,7.47
2022-11-29T06:45:42.869Z,7.48
2022-11-29T06:46:42.871Z,7.47
2022-11-29T06:47:42.816Z,7.47
2022-11-29T06:48:42.788Z,7.50
2022-11-29T06:49:42.815Z,7.47
2022-11-29T06:50:42.805Z,7.47
2022-11-29T06:51:42.781Z,7.48
2022-11-29T06:52:42.759Z,7.48
2022-11-29T06:53:42.792Z,7.48
2022-11-29T06:54:43.115Z,7.48
2022-11-29T06:55:42.732Z,7.48
2022-11-29T06:56:42.708Z,7.48
2022-11-29T06:57:42.713Z,7.47
2022-11-29T06:58:42.688Z,7.48
2022-11-29T06:59:42.680Z,7.50
2022-11-29T07:00:42.716Z,7.50
2022-11-29T07:01:42.936Z,7.51
2022-11-29T07:02:42.652Z,7.53
2022-11-29T07:03:42.664Z,7.54
2022-11-29T07:04:45.859Z,7.56
2022-11-29T07:05:42.688Z,7.54
2022-11-29T07:06:42.598Z,7.56
2022-11-29T07:07:42.648Z,7.56
2022-11-29T07:08:42.576Z,7.56
2022-11-29T07:09:42.588Z,7.57
2022-11-29T07:10:42.549Z,7.57
2022-11-29T07:11:42.589Z,7.57
2022-11-29T07:12:42.541Z,7.57
2022-11-29T07:13:42.534Z,7.57
2022-11-29T07:14:42.675Z,7.56
2022-11-29T07:15:42.521Z,7.57
2022-11-29T07:16:42.536Z,7.57
2022-11-29T07:17:42.488Z,7.58
2022-11-29T07:18:42.457Z,7.58
2022-11-29T07:19:42.458Z,7.60
2022-11-29T07:20:42.437Z,7.57
2022-11-29T07:21:42.481Z,7.58
2022-11-29T07:22:42.441Z,7.60
2022-11-29T07:23:42.429Z,7.60
2022-11-29T07:24:42.591Z,7.60
2022-11-29T07:25:42.401Z,7.60
2022-11-29T07:26:42.921Z,7.58
2022-11-29T07:27:42.376Z,7.58
2022-11-29T07:28:42.357Z,7.60
2022-11-29T07:29:42.337Z,7.60
2022-11-29T07:30:42.321Z,7.58
2022-11-29T07:31:42.391Z,7.60
2022-11-29T07:32:47.313Z,7.61
2022-11-29T07:33:43.309Z,7.60
2022-11-29T07:34:42.357Z,7.63
2022-11-29T07:35:42.309Z,7.61
2022-11-29T07:36:42.257Z,7.63
2022-11-29T07:37:42.277Z,7.63
2022-11-29T07:38:42.240Z,7.61
2022-11-29T07:39:42.249Z,7.63
2022-11-29T07:40:42.312Z,7.63
2022-11-29T07:41:42.210Z,7.63
2022-11-29T07:42:42.201Z,7.66
2022-11-29T07:43:42.190Z,7.66
2022-11-29T07:44:42.176Z,7.63
2022-11-29T07:45:42.181Z,7.66
2022-11-29T07:46:42.241Z,7.66
2022-11-29T07:47:42.149Z,7.66
2022-11-29T07:48:42.159Z,7.66
2022-11-29T07:49:42.129Z,7.66
2022-11-29T07:50:42.097Z,7.66
2022-11-29T07:51:42.118Z,7.66
2022-11-29T07:52:42.078Z,7.66
2022-11-29T07:53:42.089Z,7.67
2022-11-29T07:54:42.077Z,7.66
2022-11-29T07:55:42.061Z,7.69
2022-11-29T07:56:42.039Z,7.69
2022-11-29T07:57:42.057Z,7.69
2022-11-29T07:58:42.078Z,7.70
2022-11-29T07:59:42.174Z,7.70
2022-11-29T08:00:42.080Z,7.70
2022-11-29T08:01:42.061Z,7.70
2022-11-29T08:02:42.063Z,7.69
2022-11-29T08:03:41.978Z,7.70
2022-11-29T08:04:42.047Z,7.70
2022-11-29T08:05:41.962Z,7.72
2022-11-29T08:06:41.930Z,7.72
2022-11-29T08:07:41.987Z,7.72
2022-11-29T08:08:44.107Z,7.75
2022-11-29T08:09:41.901Z,7.75
2022-11-29T08:10:41.898Z,7.73
2022-11-29T08:11:41.884Z,7.75
2022-11-29T08:12:41.850Z,7.76
2022-11-29T08:13:41.862Z,7.77
2022-11-29T08:14:41.850Z,7.76
2022-11-29T08:15:41.851Z,7.77
2022-11-29T08:16:41.885Z,7.79
2022-11-29T08:17:41.830Z,7.79
2022-11-29T08:18:41.798Z,7.77
2022-11-29T08:19:41.810Z,7.79
2022-11-29T08:20:41.800Z,7.79
2022-11-29T08:21:41.778Z,7.80
2022-11-29T08:22:41.763Z,7.80
2022-11-29T08:23:41.751Z,7.80
2022-11-29T08:24:41.864Z,7.82
2022-11-29T08:25:41.731Z,7.80
2022-11-29T08:26:41.712Z,7.79
2022-11-29T08:27:41.710Z,7.82
2022-11-29T08:28:41.682Z,7.80
2022-11-29T08:29:41.715Z,7.79
2022-11-29T08:30:41.690Z,7.80
2022-11-29T08:31:41.693Z,7.80
2022-11-29T08:32:41.638Z,7.79
2022-11-29T08:33:41.638Z,7.82
2022-11-29T08:34:41.650Z,7.80
2022-11-29T08:35:41.643Z,7.80
2022-11-29T08:36:41.611Z,7.82
2022-11-29T08:37:41.603Z,7.82
2022-11-29T08:38:41.565Z,7.80
2022-11-29T08:39:41.565Z,7.83
2022-11-29T08:40:41.550Z,7.83
2022-11-29T08:41:41.530Z,7.85
2022-11-29T08:42:41.540Z,7.87
2022-11-29T08:43:41.538Z,7.85
2022-11-29T08:44:41.511Z,7.87
2022-11-29T08:45:41.530Z,7.87
2022-11-29T08:46:41.503Z,7.88
2022-11-29T08:47:41.490Z,7.88
2022-11-29T08:48:41.454Z,7.87
2022-11-29T08:49:41.468Z,7.87
2022-11-29T08:50:41.472Z,7.85
2022-11-29T08:51:41.456Z,7.85
2022-11-29T08:52:41.412Z,7.85
2022-11-29T08:53:41.435Z,7.87
2022-11-29T08:54:41.406Z,7.88
2022-11-29T08:55:41.386Z,7.88
2022-11-29T08:57:42.383Z,7.91
2022-11-29T08:58:41.371Z,7.90
2022-11-29T08:59:41.397Z,7.91
2022-11-29T09:00:41.360Z,7.91
2022-11-29T09:01:41.320Z,7.93
2022-11-29T09:02:41.351Z,7.93
2022-11-29T09:03:41.292Z,7.93
2022-11-29T09:04:41.301Z,7.93
2022-11-29T09:05:41.281Z,7.93
2022-11-29T09:06:41.253Z,7.93
2022-11-29T09:07:41.269Z,7.93
2022-11-29T09:08:41.242Z,7.93
2022-11-29T09:09:41.280Z,7.93
2022-11-29T09:10:41.308Z,7.94
2022-11-29T09:11:42.438Z,7.94
2022-11-29T09:12:41.173Z,7.94
2022-11-29T09:13:41.192Z,7.97
2022-11-29T09:14:41.180Z,7.95
2022-11-29T09:15:41.172Z,7.95
2022-11-29T09:16:41.240Z,7.95
2022-11-29T09:17:41.160Z,7.95
2022-11-29T09:18:41.152Z,7.95
2022-11-29T09:19:41.123Z,7.97
2022-11-29T09:20:41.113Z,7.95
2022-11-29T09:21:41.098Z,7.97
2022-11-29T09:22:41.095Z,7.97
2022-11-29T09:23:41.072Z,7.97
2022-11-29T09:24:41.074Z,7.98
2022-11-29T09:25:41.059Z,7.97
2022-11-29T09:26:41.031Z,7.98
2022-11-29T09:27:41.032Z,7.98
2022-11-29T09:28:41.013Z,8.00
2022-11-29T09:29:41.020Z,8.00
2022-11-29T09:30:40.984Z,8.00
2022-11-29T09:31:41.040Z,8.01
2022-11-29T09:32:40.982Z,8.01
2022-11-29T09:33:40.977Z,8.03
2022-11-29T09:34:40.945Z,7.98
2022-11-29T09:35:40.962Z,7.98
2022-11-29T09:36:40.924Z,7.98
2022-11-29T09:37:40.912Z,7.97
2022-11-29T09:38:40.902Z,7.97
2022-11-29T09:39:40.892Z,8.00
2022-11-29T09:40:40.881Z,8.00
2022-11-29T09:41:44.252Z,8.01
2022-11-29T09:42:41.869Z,8.03
2022-11-29T09:43:40.852Z,8.05
2022-11-29T09:44:40.877Z,8.05
2022-11-29T09:45:40.861Z,8.08
2022-11-29T09:46:40.806Z,8.09
2022-11-29T09:47:40.820Z,8.06
2022-11-29T09:48:40.812Z,8.06
2022-11-29T09:49:40.793Z,8.06
2022-11-29T09:50:40.782Z,8.06
2022-11-29T09:51:44.191Z,8.09
2022-11-29T09:52:40.772Z,8.09
2022-11-29T09:53:40.754Z,8.12
2022-11-29T09:54:40.721Z,8.10
2022-11-29T09:55:40.739Z,8.13
2022-11-29T09:56:40.693Z,8.15
2022-11-29T09:57:40.692Z,8.13
2022-11-29T09:58:40.685Z,8.16
2022-11-29T09:59:40.672Z,8.15
2022-11-29T10:00:40.665Z,8.15
2022-11-29T10:01:40.699Z,8.15
2022-11-29T10:02:40.660Z,8.13
2022-11-29T10:03:40.640Z,8.12
2022-11-29T10:04:40.632Z,8.13
2022-11-29T10:05:40.596Z,8.15
2022-11-29T10:06:40.585Z,8.13
2022-11-29T10:07:40.610Z,8.18
2022-11-29T10:08:40.561Z,8.15
2022-11-29T10:09:40.573Z,8.15
2022-11-29T10:10:40.543Z,8.18
2022-11-29T10:11:40.544Z,8.18
2022-11-29T10:12:40.526Z,8.19
2022-11-29T10:13:40.544Z,8.18
2022-11-29T10:14:40.528Z,8.18
2022-11-29T10:15:40.512Z,8.16
2022-11-29T10:16:40.527Z,8.15
2022-11-29T10:17:40.472Z,8.18
2022-11-29T10:18:40.446Z,8.18
2022-11-29T10:19:40.441Z,8.18
2022-11-29T10:20:43.624Z,8.20
2022-11-29T10:21:41.433Z,8.23
2022-11-29T10:22:40.421Z,8.24
2022-11-29T10:23:40.402Z,8.27
2022-11-29T10:24:40.387Z,8.26
2022-11-29T10:25:40.397Z,8.20
2022-11-29T10:26:40.404Z,8.15
2022-11-29T10:27:40.361Z,8.12
2022-11-29T10:28:40.345Z,8.15
2022-11-29T10:29:40.332Z,8.18
2022-11-29T10:30:40.377Z,8.16
2022-11-29T10:31:40.333Z,8.19
2022-11-29T10:32:40.313Z,8.19
2022-11-29T10:33:40.285Z,8.23
2022-11-29T10:34:40.273Z,8.24
2022-11-29T10:35:40.282Z,8.27
2022-11-29T10:36:40.252Z,8.30
2022-11-29T10:37:40.242Z,8.33
2022-11-29T10:38:40.240Z,8.34
2022-11-29T10:39:40.221Z,8.36
2022-11-29T10:40:40.216Z,8.34
2022-11-29T10:41:40.193Z,8.31
2022-11-29T10:42:40.205Z,8.30
2022-11-29T10:43:40.167Z,8.28
2022-11-29T10:44:40.181Z,8.27
2022-11-29T10:45:40.322Z,8.27
2022-11-29T10:46:40.156Z,8.24
2022-11-29T10:47:40.133Z,8.24
2022-11-29T10:48:40.133Z,8.24
2022-11-29T10:49:40.101Z,8.26
2022-11-29T10:50:40.113Z,8.24
2022-11-29T10:51:40.093Z,8.24
2022-11-29T10:52:40.101Z,8.24
2022-11-29T10:53:40.067Z,8.28
2022-11-29T10:54:40.105Z,8.28
2022-11-29T10:55:40.043Z,8.31
2022-11-29T10:56:40.037Z,8.31
2022-11-29T10:57:40.040Z,8.34
2022-11-29T10:58:40.012Z,8.38
2022-11-29T10:59:39.993Z,8.42
2022-11-29T11:00:40.001Z,8.42
2022-11-29T11:01:40.008Z,8.41
2022-11-29T11:02:39.985Z,8.41
2022-11-29T11:03:39.947Z,8.41
2022-11-29T11:04:39.941Z,8.41
2022-11-29T11:05:40.017Z,8.41
2022-11-29T11:06:39.932Z,8.41
2022-11-29T11:07:40.019Z,8.42
2022-11-29T11:08:39.913Z,8.41
2022-11-29T11:09:39.873Z,8.44
2022-11-29T11:10:39.892Z,8.42
2022-11-29T11:11:39.852Z,8.45
2022-11-29T11:12:39.864Z,8.46
2022-11-29T11:13:39.853Z,8.49
2022-11-29T11:14:39.844Z,8.52
2022-11-29T11:15:39.836Z,8.51
2022-11-29T11:16:39.862Z,8.51
2022-11-29T11:17:39.801Z,8.53
2022-11-29T11:18:39.792Z,8.53
2022-11-29T11:19:39.805Z,8.51
2022-11-29T11:20:39.778Z,8.48
2022-11-29T11:21:39.752Z,8.49
2022-11-29T11:22:39.768Z,8.48
2022-11-29T11:23:42.725Z,8.51
2022-11-29T11:24:39.724Z,8.52
2022-11-29T11:25:39.734Z,8.53
2022-11-29T11:26:39.713Z,8.52
2022-11-29T11:27:39.684Z,8.51
2022-11-29T11:28:39.685Z,8.51
2022-11-29T11:29:39.670Z,8.52
2022-11-29T11:30:39.683Z,8.53
2022-11-29T11:31:39.654Z,8.55
2022-11-29T11:32:39.645Z,8.55
2022-11-29T11:33:39.632Z,8.56
2022-11-29T11:34:39.613Z,8.60
2022-11-29T11:35:39.630Z,8.56
2022-11-29T11:36:39.604Z,8.56
2022-11-29T11:37:39.573Z,8.58
2022-11-29T11:38:39.568Z,8.58
2022-11-29T11:39:39.545Z,8.53
2022-11-29T11:40:39.600Z,8.53
2022-11-29T11:41:39.550Z,8.52
2022-11-29T11:42:39.656Z,8.55
2022-11-29T11:43:39.525Z,8.55
2022-11-29T11:44:47.843Z,8.55
2022-11-29T11:45:40.486Z,8.55
2022-11-29T11:46:39.520Z,8.60
2022-11-29T11:47:39.485Z,8.61
2022-11-29T11:48:39.460Z,8.58
2022-11-29T11:49:39.454Z,8.61
2022-11-29T11:50:39.453Z,8.61
2022-11-29T11:51:39.412Z,8.61
2022-11-29T11:52:41.312Z,8.60
2022-11-29T11:53:39.391Z,8.60
2022-11-29T11:54:39.407Z,8.63
2022-11-29T11:55:39.374Z,8.61
2022-11-29T11:56:39.384Z,8.61
2022-11-29T11:57:39.347Z,8.64
2022-11-29T11:58:39.362Z,8.66
2022-11-29T11:59:39.375Z,8.64
2022-11-29T12:01:06.223Z,8.63
2022-11-29T12:01:40.352Z,8.61
2022-11-29T12:02:39.400Z,8.60
2022-11-29T12:03:39.307Z,8.63
2022-11-29T12:04:39.275Z,8.61
2022-11-29T12:05:43.592Z,8.66
2022-11-29T12:06:40.268Z,8.66
2022-11-29T12:08:06.747Z,8.64
2022-11-29T12:08:40.263Z,8.66
2022-11-29T12:09:39.211Z,8.66
2022-11-29T12:10:39.216Z,8.66
2022-11-29T12:11:39.187Z,8.67
2022-11-29T12:12:39.180Z,8.66
2022-11-29T12:13:39.179Z,8.66
2022-11-29T12:14:39.171Z,8.66
2022-11-29T12:15:39.169Z,8.66
2022-11-29T12:16:39.169Z,8.67
2022-11-29T12:17:39.115Z,8.70
2022-11-29T12:18:39.136Z,8.73
2022-11-29T12:19:39.099Z,8.73
2022-11-29T12:20:39.128Z,8.70
2022-11-29T12:21:39.094Z,8.69
2022-11-29T12:22:41.569Z,8.67
2022-11-29T12:23:40.055Z,8.69
2022-11-29T12:24:39.067Z,8.69
2022-11-29T12:25:39.079Z,8.69
2022-11-29T12:27:40.057Z,8.67
2022-11-29T12:28:39.015Z,8.66
2022-11-29T12:29:38.988Z,8.67
2022-11-29T12:30:39.004Z,8.67
2022-11-29T12:31:38.967Z,8.66
2022-11-29T12:32:38.977Z,8.66
2022-11-29T12:33:38.976Z,8.64
2022-11-29T12:34:43.022Z,8.60
2022-11-29T12:35:38.956Z,8.60
2022-11-29T12:36:38.920Z,8.58
2022-11-29T12:37:38.908Z,8.56
2022-11-29T12:38:38.888Z,8.56
2022-11-29T12:39:38.887Z,8.58
2022-11-29T12:40:38.886Z,8.56
2022-11-29T12:41:38.889Z,8.55
2022-11-29T12:42:38.856Z,8.55
2022-11-29T12:43:38.831Z,8.55
2022-11-29T12:44:38.836Z,8.55
2022-11-29T12:45:38.836Z,8.58
2022-11-29T12:46:38.949Z,8.60
2022-11-29T12:47:38.890Z,8.58
2022-11-29T12:48:38.789Z,8.60
2022-11-29T12:49:38.770Z,8.56
2022-11-29T12:50:38.769Z,8.55
2022-11-29T12:51:38.750Z,8.56
2022-11-29T12:52:38.781Z,8.56
2022-11-29T12:53:38.722Z,8.55
2022-11-29T12:54:38.764Z,8.55
2022-11-29T12:55:38.736Z,8.55
2022-11-29T12:56:38.700Z,8.52
2022-11-29T12:57:38.676Z,8.52
2022-11-29T12:58:42.735Z,8.51
2022-11-29T12:59:39.672Z,8.52
2022-11-29T13:00:38.649Z,8.52
2022-11-29T13:01:38.714Z,8.52
2022-11-29T13:02:38.675Z,8.52
2022-11-29T13:03:38.619Z,8.52
2022-11-29T13:04:38.630Z,8.51
2022-11-29T13:05:38.589Z,8.52
2022-11-29T13:06:38.589Z,8.52
2022-11-29T13:07:38.712Z,8.51
2022-11-29T13:08:38.557Z,8.52
2022-11-29T13:09:38.549Z,8.53
2022-11-29T13:10:38.557Z,8.51
2022-11-29T13:11:38.529Z,8.51
2022-11-29T13:12:38.521Z,8.51
2022-11-29T13:13:38.521Z,8.51
2022-11-29T13:14:43.362Z,8.51
2022-11-29T13:15:39.517Z,8.49
2022-11-29T13:16:38.533Z,8.51
2022-11-29T13:17:38.458Z,8.46
2022-11-29T13:18:38.457Z,8.48
2022-11-29T13:19:38.452Z,8.46
2022-11-29T13:20:38.490Z,8.45